Buoy 51819

sailwx.info

Track history (hours):
 
Tides and Currents Weather Stations Pressure Air Temp Water Temp Dewpoint Dewpoint Depression Visibility Wind Speed Wind Dir Waves Ship Positions

Min Pu Yu 51819

Last reported at 2017-Sep-24 13:00 UTC. Time now 2017-Sep-24 14:06 UTC.
Position N 08°04' W 107°23'.

Length 26 m.

Type: Fishing. MMSI: 412448202.

Air temperature -0.0 ° C
Water temperature 27.6 ° C

Date/timePositionNaut miles runAvg speedWind from/ knotsBaromVisibWave heightAir tempDewpointWater temp
2017-Sep-24 13:00N 08°04' W 107°23'0 0.0 -0.0 27.6
2017-Sep-24 12:30N 08°04' W 107°23'0 0.0 -0.0 27.6
2017-Sep-24 12:00N 08°04' W 107°23'2 0.9 -0.0 27.6
2017-Sep-24 10:00N 08°04' W 107°25'1 0.6 -0.0 27.6
2017-Sep-24 09:00N 08°04' W 107°25'2 0.5 -0.0 27.6
2017-Sep-24 05:00N 08°05' W 107°27'1 0.6 -0.0 27.6
2017-Sep-24 04:00N 08°05' W 107°28'1 0.7 -0.0 27.6
2017-Sep-24 02:00N 08°05' W 107°29'1 1.2 -0.0 27.6
2017-Sep-24 01:30N 08°05' W 107°29'0 0.0 -0.0 27.6
2017-Sep-24 01:00N 08°05' W 107°29'1 0.6 -0.0 27.6
2017-Sep-24 00:00N 08°05' W 107°30'1 0.6 -0.0 27.6
2017-Sep-23 23:00N 08°05' W 107°31'1 0.7 -0.0 27.6
2017-Sep-23 21:00N 08°06' W 107°32'2 0.8 -0.0 27.6
2017-Sep-23 18:00N 08°07' W 107°34'1 0.6 -0.0 27.6
2017-Sep-23 17:00N 08°07' W 107°35'0 0.0 -0.0 27.6
2017-Sep-23 16:30N 08°07' W 107°35'1 1.7 -0.0 27.6
2017-Sep-23 16:00N 08°07' W 107°35'1 0.3 -0.0 27.6
2017-Sep-23 14:00N 08°07' W 107°36'1 0.6 -0.0 27.6
2017-Sep-23 13:00N 08°07' W 107°37'1 0.8 -0.0 27.6
2017-Sep-23 11:30N 08°07' W 107°38'1 0.8 -0.0 27.6
2017-Sep-23 10:00N 08°07' W 107°39'3 0.6 -0.0 27.6
2017-Sep-23 04:30N 08°08' W 107°42'1 0.5 -0.0 27.6
2017-Sep-23 02:00N 08°09' W 107°43'1 1.2 -0.0 27.6
2017-Sep-23 01:30N 08°09' W 107°44'0 0.0 -0.0 27.6
2017-Sep-23 01:00N 08°09' W 107°44'1 1.2 -0.0 27.6
2017-Sep-23 00:30N 08°10' W 107°44'1 0.4 -0.0 27.6
2017-Sep-22 21:30N 08°10' W 107°45'5 0.8 -0.0 27.6
2017-Sep-22 15:30N 08°11' W 107°49'1 0.7 -0.0 27.6
2017-Sep-22 13:30N 08°12' W 107°50'1 0.6 -0.0 27.6
2017-Sep-22 12:30N 08°12' W 107°51'1 1.2 -0.0 27.6
2017-Sep-22 12:00N 08°12' W 107°52'1 0.4 -0.0 27.6
2017-Sep-22 10:30N 08°12' W 107°52'1 1.2 -0.0 27.6
2017-Sep-22 10:00N 08°13' W 107°52'4 0.9 -0.0 27.6
2017-Sep-22 05:30N 08°13' W 107°56'0 0.0 -0.0 27.6
2017-Sep-22 05:00N 08°13' W 107°56'1 1.2 -0.0 27.7
2017-Sep-22 04:00N 08°13' W 107°58'2 1.2 -0.0 27.7
2017-Sep-22 02:30N 08°13' W 107°59'0 0.0 -0.0 27.7
2017-Sep-22 02:00N 08°13' W 107°59'1 1.2 -0.0 27.7
2017-Sep-22 01:30N 08°13' W 108°00'1 1.2 -0.0 27.7
2017-Sep-22 01:00N 08°13' W 108°01'1 0.6 -0.0 27.7
2017-Sep-22 00:00N 08°13' W 108°01'1 0.8 -0.0 27.7
2017-Sep-21 23:00N 08°12' W 108°02'1 0.8 -0.0 27.8
2017-Sep-21 21:30N 08°12' W 108°03'4 0.9 -0.0 27.7
2017-Sep-21 17:00N 08°12' W 108°07'1 0.8 -0.0 27.6
2017-Sep-21 16:00N 08°11' W 108°08'2 0.9 -0.0 27.6
2017-Sep-21 14:00N 08°11' W 108°10'0 0.0 -0.0 27.6
2017-Sep-21 13:30N 08°11' W 108°10'1 1.2 -0.0 27.6
2017-Sep-21 13:00N 08°11' W 108°10'2 0.7 -0.0 27.6
2017-Sep-21 10:30N 08°11' W 108°12'1 1.2 -0.0 27.6
2017-Sep-21 09:30N 08°11' W 108°13'0 0.0 -0.0 27.6
2017-Sep-21 09:00N 08°11' W 108°13'1 1.2 -0.0 27.6
2017-Sep-21 08:00N 08°11' W 108°14'2 0.8 -0.0 27.6
2017-Sep-21 05:00N 08°11' W 108°17'2 1.2 -0.0 27.7
2017-Sep-21 03:30N 08°11' W 108°19'1 0.7 -0.0 27.7
2017-Sep-21 01:30N 08°10' W 108°20'2 0.9
2017-Sep-20 23:30N 08°10' W 108°22'2 1.3 -0.0 27.7
2017-Sep-20 22:00N 08°09' W 108°23'6 1.0 -0.0 27.7
2017-Sep-20 15:31N 08°07' W 108°29'0 0.0 -0.0 27.7
2017-Sep-20 15:30N 08°07' W 108°29'1 0.8 -0.0 27.7
2017-Sep-20 14:30N 08°07' W 108°30'1 0.9 -0.0 27.7
2017-Sep-20 13:00N 08°06' W 108°31'1 1.2 -0.0 27.7
2017-Sep-20 12:30N 08°05' W 108°31'1 1.2 -0.0 27.7
2017-Sep-20 12:00N 08°05' W 108°32'1 0.9 -0.0 27.7
2017-Sep-20 10:30N 08°05' W 108°33'5 1.0 -0.0 27.7
2017-Sep-20 05:30N 08°04' W 108°38'2 1.1 -0.0 27.7
2017-Sep-20 03:30N 08°02' W 108°40'1 1.7 -0.0 27.7
2017-Sep-20 03:00N 08°02' W 108°40'2 1.1 -0.0 27.7
2017-Sep-20 01:00N 08°01' W 108°42'0 0.0 -0.0 27.7
2017-Sep-20 00:30N 08°01' W 108°42'1 1.7 -0.0 27.7
2017-Sep-20 00:00N 08°00' W 108°43'2 0.8 -0.0 27.7
2017-Sep-19 22:00N 07°59' W 108°44'1 1.3 -0.0 27.8
2017-Sep-19 21:00N 07°58' W 108°45'4 1.2 -0.0 27.8
2017-Sep-19 17:31N 07°55' W 108°48'0 0.0 -0.0 27.8
2017-Sep-19 17:30N 07°55' W 108°48'2 1.4 -0.0 27.8
2017-Sep-19 16:00N 07°53' W 108°49'3 1.1 -0.0 27.8
2017-Sep-19 13:30N 07°51' W 108°50'1 1.7 -0.0 27.8
2017-Sep-19 13:00N 07°50' W 108°51'1 1.2 -0.0 27.8
2017-Sep-19 12:00N 07°49' W 108°51'1 0.6 -0.0 27.8
2017-Sep-19 11:00N 07°49' W 108°51'4 0.6 -0.0 27.8
2017-Sep-19 05:00N 07°45' W 108°52'1 0.8 -0.0 28.0
2017-Sep-19 04:00N 07°44' W 108°53'0 0.0 -0.0 28.0
2017-Sep-19 03:30N 07°44' W 108°53'1 1.2 -0.0 28.1
2017-Sep-19 03:00N 07°44' W 108°53'0 0.0 -0.0 28.1
2017-Sep-19 02:30N 07°44' W 108°53'0 0.0 -0.0 28.1
2017-Sep-19 02:00N 07°44' W 108°53'1 1.2 -0.0 28.1
2017-Sep-19 01:30N 07°43' W 108°53'0 0.0 -0.0 28.1
2017-Sep-19 01:00N 07°43' W 108°53'0 0.0 -0.0 28.0
2017-Sep-19 00:00N 07°43' W 108°53'1 0.4 -0.0 28.1
2017-Sep-18 22:30N 07°43' W 108°53'0 0.0 -0.0 28.0
2017-Sep-18 22:00N 07°43' W 108°53'0 0.0 -0.0 28.0
2017-Sep-18 21:00N 07°43' W 108°53'1 0.3 -0.0 28.1
2017-Sep-18 18:00N 07°42' W 108°53'1 0.3 -0.0 28.6
2017-Sep-18 16:00N 07°42' W 108°54'1 0.3 -0.0 27.9
2017-Sep-18 14:00N 07°42' W 108°55'0 0.0 -0.0 27.8
2017-Sep-18 13:00N 07°42' W 108°55'1 1.2 -0.0 27.8
2017-Sep-18 12:30N 07°42' W 108°55'0 0.0 -0.0 27.8
2017-Sep-18 12:00N 07°42' W 108°55'1 0.3 -0.0 27.8
2017-Sep-18 09:30N 07°41' W 108°56'1 0.4 -0.0 27.8
2017-Sep-18 06:00N 07°41' W 108°57'1 1.2 -0.0 27.9
2017-Sep-18 05:30N 07°41' W 108°58'1 0.6 -0.0 27.8
2017-Sep-18 04:30N 07°41' W 108°58'1 0.4 -0.0 27.9
2017-Sep-18 03:00N 07°41' W 108°59'1 1.7 -0.0 27.9
2017-Sep-18 02:30N 07°40' W 108°59'0 0.0 -0.0 27.9
2017-Sep-18 02:00N 07°40' W 108°59'0 0.0 -0.0 27.9
2017-Sep-18 01:30N 07°40' W 108°59'1 1.2 -0.0 27.9
2017-Sep-18 01:00N 07°40' W 109°00'0 0.0 -0.0 28.0
2017-Sep-18 00:00N 07°40' W 109°00'1 1.2 -0.0 28.1
2017-Sep-17 23:30N 07°40' W 109°01'6 0.6 -0.0 28.1
2017-Sep-17 14:30N 07°37' W 109°05'1 0.8 -0.0 27.7
2017-Sep-17 13:30N 07°36' W 109°05'0 0.0 -0.0 27.7
2017-Sep-17 13:00N 07°36' W 109°05'1 0.8 -0.0 27.7
2017-Sep-17 12:00N 07°35' W 109°06'4 0.6 -0.0 27.8
2017-Sep-17 05:30N 07°32' W 109°09'1 0.6 -0.0 27.9
2017-Sep-17 04:00N 07°32' W 109°10'0 0.0 -0.0 27.9
2017-Sep-17 03:30N 07°32' W 109°10'1 1.2 -0.0 27.9
2017-Sep-17 03:00N 07°31' W 109°10'1 1.2 -0.0 27.9
2017-Sep-17 02:30N 07°31' W 109°10'0 0.0 -0.0 27.9
2017-Sep-17 02:00N 07°31' W 109°10'1 1.2 -0.0 27.9
2017-Sep-17 01:30N 07°31' W 109°11'1 1.2 -0.0 27.9
2017-Sep-17 01:00N 07°31' W 109°11'1 0.6 -0.0 28.0
2017-Sep-17 00:00N 07°31' W 109°11'1 0.6 -0.0 28.0
2017-Sep-16 23:00N 07°31' W 109°12'1 1.2 -0.0 28.1
2017-Sep-16 22:30N 07°30' W 109°12'1 0.8 -0.0 28.1
2017-Sep-16 21:00N 07°30' W 109°13'2 0.5 -0.0 28.1
2017-Sep-16 17:00N 07°29' W 109°15'1 1.2 -0.0 27.8
2017-Sep-16 16:00N 07°29' W 109°16'1 0.8 -0.0 27.8
2017-Sep-16 15:00N 07°28' W 109°17'0 0.0 -0.0 27.7
2017-Sep-16 14:30N 07°28' W 109°17'1 0.6 -0.0 27.7
2017-Sep-16 13:30N 07°28' W 109°17'1 1.2 -0.0 27.7
2017-Sep-16 13:00N 07°28' W 109°18'1 0.8 -0.0 27.7
2017-Sep-16 12:00N 07°28' W 109°19'0 0.0 -0.0 27.8
2017-Sep-16 11:30N 07°28' W 109°19'1 0.9 -0.0 27.8
2017-Sep-16 10:00N 07°27' W 109°20'0 0.0 -0.0 27.8
2017-Sep-16 09:30N 07°27' W 109°20'3 0.7 -0.0 27.8
2017-Sep-16 05:00N 07°26' W 109°23'1 1.2 -0.0 27.9
2017-Sep-16 04:30N 07°26' W 109°23'1 0.8 -0.0 27.9
2017-Sep-16 03:30N 07°25' W 109°24'1 1.2 -0.0 27.9
2017-Sep-16 02:30N 07°25' W 109°25'0 0.0 -0.0 27.9
2017-Sep-16 02:00N 07°25' W 109°25'1 1.3 -0.0 28.0
2017-Sep-16 01:00N 07°25' W 109°26'0 0.0 -0.0 28.1
2017-Sep-16 00:30N 07°25' W 109°26'1 0.9 -0.0 28.2
2017-Sep-15 23:00N 07°24' W 109°28'1 0.6 -0.0 28.3
2017-Sep-15 22:00N 07°24' W 109°28'1 1.3 -0.0 28.4
2017-Sep-15 21:00N 07°23' W 109°29'1 0.8 -0.0 28.2
2017-Sep-15 20:00N 07°23' W 109°30'2 0.7 -0.0 28.0
2017-Sep-15 17:00N 07°22' W 109°32'1 0.9 -0.0 27.7
2017-Sep-15 15:30N 07°21' W 109°33'2 0.9 -0.0 27.6
2017-Sep-15 13:00N 07°20' W 109°35'1 1.2 -0.0 27.6
2017-Sep-15 12:30N 07°20' W 109°35'1 1.2 -0.0 27.6
2017-Sep-15 12:00N 07°20' W 109°36'2 0.8 -0.0 27.6
2017-Sep-15 10:00N 07°19' W 109°37'1 1.3 -0.0 27.6
2017-Sep-15 09:00N 07°18' W 109°38'3 0.7 -0.0 27.6
2017-Sep-15 05:30N 07°16' W 109°40'2 1.1 -0.0 27.7
2017-Sep-15 04:00N 07°15' W 109°41'1 0.8 -0.0 27.7
2017-Sep-15 03:00N 07°14' W 109°42'1 1.3 -0.0 27.7
2017-Sep-15 02:00N 07°13' W 109°43'1 0.8 -0.0 27.7
2017-Sep-15 01:00N 07°13' W 109°43'1 0.8 -0.0 27.8
2017-Sep-15 00:00N 07°12' W 109°44'1 1.3 -0.0 27.8
2017-Sep-14 23:00N 07°11' W 109°45'2 0.8 -0.0 27.8
2017-Sep-14 21:00N 07°10' W 109°46'2 0.5 -0.0 27.8
2017-Sep-14 17:30N 07°09' W 109°47'1 1.2 -0.0 27.6
2017-Sep-14 17:00N 07°09' W 109°48'1 0.4 -0.0 27.6
2017-Sep-14 14:00N 07°08' W 109°49'1 1.2 -0.0 27.6
2017-Sep-14 13:30N 07°08' W 109°49'0 0.0 -0.0 27.6
2017-Sep-14 13:00N 07°08' W 109°49'   -0.0 27.6
Track history (hours):
 
Tides and Currents Weather Stations Pressure Air Temp Water Temp Dewpoint Dewpoint Depression Visibility Wind Speed Wind Dir Waves Ship Positions

Min Pu Yu 51819

Last reported at 2017-Sep-24 13:00 UTC. Time now 2017-Sep-24 14:06 UTC.
Position N 08°04' W 107°23'.

Length 26 m.

Type: Fishing. MMSI: 412448202.

Air temperature -0.0 ° C
Water temperature 27.6 ° C

Date/timePositionNaut miles runAvg speedWind from/ knotsBaromVisibWave heightAir tempDewpointWater temp
2017-Sep-24 13:00N 08°04' W 107°23'0 0.0 -0.0 27.6
2017-Sep-24 12:30N 08°04' W 107°23'0 0.0 -0.0 27.6
2017-Sep-24 12:00N 08°04' W 107°23'2 0.9 -0.0 27.6
2017-Sep-24 10:00N 08°04' W 107°25'1 0.6 -0.0 27.6
2017-Sep-24 09:00N 08°04' W 107°25'2 0.5 -0.0 27.6
2017-Sep-24 05:00N 08°05' W 107°27'1 0.6 -0.0 27.6
2017-Sep-24 04:00N 08°05' W 107°28'1 0.7 -0.0 27.6
2017-Sep-24 02:00N 08°05' W 107°29'1 1.2 -0.0 27.6
2017-Sep-24 01:30N 08°05' W 107°29'0 0.0 -0.0 27.6
2017-Sep-24 01:00N 08°05' W 107°29'1 0.6 -0.0 27.6
2017-Sep-24 00:00N 08°05' W 107°30'1 0.6 -0.0 27.6
2017-Sep-23 23:00N 08°05' W 107°31'1 0.7 -0.0 27.6
2017-Sep-23 21:00N 08°06' W 107°32'2 0.8 -0.0 27.6
2017-Sep-23 18:00N 08°07' W 107°34'1 0.6 -0.0 27.6
2017-Sep-23 17:00N 08°07' W 107°35'0 0.0 -0.0 27.6
2017-Sep-23 16:30N 08°07' W 107°35'1 1.7 -0.0 27.6
2017-Sep-23 16:00N 08°07' W 107°35'1 0.3 -0.0 27.6
2017-Sep-23 14:00N 08°07' W 107°36'1 0.6 -0.0 27.6
2017-Sep-23 13:00N 08°07' W 107°37'1 0.8 -0.0 27.6
2017-Sep-23 11:30N 08°07' W 107°38'1 0.8 -0.0 27.6
2017-Sep-23 10:00N 08°07' W 107°39'3 0.6 -0.0 27.6
2017-Sep-23 04:30N 08°08' W 107°42'1 0.5 -0.0 27.6
2017-Sep-23 02:00N 08°09' W 107°43'1 1.2 -0.0 27.6
2017-Sep-23 01:30N 08°09' W 107°44'0 0.0 -0.0 27.6
2017-Sep-23 01:00N 08°09' W 107°44'1 1.2 -0.0 27.6
2017-Sep-23 00:30N 08°10' W 107°44'1 0.4 -0.0 27.6
2017-Sep-22 21:30N 08°10' W 107°45'5 0.8 -0.0 27.6
2017-Sep-22 15:30N 08°11' W 107°49'1 0.7 -0.0 27.6
2017-Sep-22 13:30N 08°12' W 107°50'1 0.6 -0.0 27.6
2017-Sep-22 12:30N 08°12' W 107°51'1 1.2 -0.0 27.6
2017-Sep-22 12:00N 08°12' W 107°52'1 0.4 -0.0 27.6
2017-Sep-22 10:30N 08°12' W 107°52'1 1.2 -0.0 27.6
2017-Sep-22 10:00N 08°13' W 107°52'4 0.9 -0.0 27.6
2017-Sep-22 05:30N 08°13' W 107°56'0 0.0 -0.0 27.6
2017-Sep-22 05:00N 08°13' W 107°56'1 1.2 -0.0 27.7
2017-Sep-22 04:00N 08°13' W 107°58'2 1.2 -0.0 27.7
2017-Sep-22 02:30N 08°13' W 107°59'0 0.0 -0.0 27.7
2017-Sep-22 02:00N 08°13' W 107°59'1 1.2 -0.0 27.7
2017-Sep-22 01:30N 08°13' W 108°00'1 1.2 -0.0 27.7
2017-Sep-22 01:00N 08°13' W 108°01'1 0.6 -0.0 27.7
2017-Sep-22 00:00N 08°13' W 108°01'1 0.8 -0.0 27.7
2017-Sep-21 23:00N 08°12' W 108°02'1 0.8 -0.0 27.8
2017-Sep-21 21:30N 08°12' W 108°03'4 0.9 -0.0 27.7
2017-Sep-21 17:00N 08°12' W 108°07'1 0.8 -0.0 27.6
2017-Sep-21 16:00N 08°11' W 108°08'2 0.9 -0.0 27.6
2017-Sep-21 14:00N 08°11' W 108°10'0 0.0 -0.0 27.6
2017-Sep-21 13:30N 08°11' W 108°10'1 1.2 -0.0 27.6
2017-Sep-21 13:00N 08°11' W 108°10'2 0.7 -0.0 27.6
2017-Sep-21 10:30N 08°11' W 108°12'1 1.2 -0.0 27.6
2017-Sep-21 09:30N 08°11' W 108°13'0 0.0 -0.0 27.6
2017-Sep-21 09:00N 08°11' W 108°13'1 1.2 -0.0 27.6
2017-Sep-21 08:00N 08°11' W 108°14'2 0.8 -0.0 27.6
2017-Sep-21 05:00N 08°11' W 108°17'2 1.2 -0.0 27.7
2017-Sep-21 03:30N 08°11' W 108°19'1 0.7 -0.0 27.7
2017-Sep-21 01:30N 08°10' W 108°20'2 0.9
2017-Sep-20 23:30N 08°10' W 108°22'2 1.3 -0.0 27.7
2017-Sep-20 22:00N 08°09' W 108°23'6 1.0 -0.0 27.7
2017-Sep-20 15:31N 08°07' W 108°29'0 0.0 -0.0 27.7
2017-Sep-20 15:30N 08°07' W 108°29'1 0.8 -0.0 27.7
2017-Sep-20 14:30N 08°07' W 108°30'1 0.9 -0.0 27.7
2017-Sep-20 13:00N 08°06' W 108°31'1 1.2 -0.0 27.7
2017-Sep-20 12:30N 08°05' W 108°31'1 1.2 -0.0 27.7
2017-Sep-20 12:00N 08°05' W 108°32'1 0.9 -0.0 27.7
2017-Sep-20 10:30N 08°05' W 108°33'5 1.0 -0.0 27.7
2017-Sep-20 05:30N 08°04' W 108°38'2 1.1 -0.0 27.7
2017-Sep-20 03:30N 08°02' W 108°40'1 1.7 -0.0 27.7
2017-Sep-20 03:00N 08°02' W 108°40'2 1.1 -0.0 27.7
2017-Sep-20 01:00N 08°01' W 108°42'0 0.0 -0.0 27.7
2017-Sep-20 00:30N 08°01' W 108°42'1 1.7 -0.0 27.7
2017-Sep-20 00:00N 08°00' W 108°43'2 0.8 -0.0 27.7
2017-Sep-19 22:00N 07°59' W 108°44'1 1.3 -0.0 27.8
2017-Sep-19 21:00N 07°58' W 108°45'4 1.2 -0.0 27.8
2017-Sep-19 17:31N 07°55' W 108°48'0 0.0 -0.0 27.8
2017-Sep-19 17:30N 07°55' W 108°48'2 1.4 -0.0 27.8
2017-Sep-19 16:00N 07°53' W 108°49'3 1.1 -0.0 27.8
2017-Sep-19 13:30N 07°51' W 108°50'1 1.7 -0.0 27.8
2017-Sep-19 13:00N 07°50' W 108°51'1 1.2 -0.0 27.8
2017-Sep-19 12:00N 07°49' W 108°51'1 0.6 -0.0 27.8
2017-Sep-19 11:00N 07°49' W 108°51'4 0.6 -0.0 27.8
2017-Sep-19 05:00N 07°45' W 108°52'1 0.8 -0.0 28.0
2017-Sep-19 04:00N 07°44' W 108°53'0 0.0 -0.0 28.0
2017-Sep-19 03:30N 07°44' W 108°53'1 1.2 -0.0 28.1
2017-Sep-19 03:00N 07°44' W 108°53'0 0.0 -0.0 28.1
2017-Sep-19 02:30N 07°44' W 108°53'0 0.0 -0.0 28.1
2017-Sep-19 02:00N 07°44' W 108°53'1 1.2 -0.0 28.1
2017-Sep-19 01:30N 07°43' W 108°53'0 0.0 -0.0 28.1
2017-Sep-19 01:00N 07°43' W 108°53'0 0.0 -0.0 28.0
2017-Sep-19 00:00N 07°43' W 108°53'1 0.4 -0.0 28.1
2017-Sep-18 22:30N 07°43' W 108°53'0 0.0 -0.0 28.0
2017-Sep-18 22:00N 07°43' W 108°53'0 0.0 -0.0 28.0
2017-Sep-18 21:00N 07°43' W 108°53'1 0.3 -0.0 28.1
2017-Sep-18 18:00N 07°42' W 108°53'1 0.3 -0.0 28.6
2017-Sep-18 16:00N 07°42' W 108°54'1 0.3 -0.0 27.9
2017-Sep-18 14:00N 07°42' W 108°55'0 0.0 -0.0 27.8
2017-Sep-18 13:00N 07°42' W 108°55'1 1.2 -0.0 27.8
2017-Sep-18 12:30N 07°42' W 108°55'0 0.0 -0.0 27.8
2017-Sep-18 12:00N 07°42' W 108°55'1 0.3 -0.0 27.8
2017-Sep-18 09:30N 07°41' W 108°56'1 0.4 -0.0 27.8
2017-Sep-18 06:00N 07°41' W 108°57'1 1.2 -0.0 27.9
2017-Sep-18 05:30N 07°41' W 108°58'1 0.6 -0.0 27.8
2017-Sep-18 04:30N 07°41' W 108°58'1 0.4 -0.0 27.9
2017-Sep-18 03:00N 07°41' W 108°59'1 1.7 -0.0 27.9
2017-Sep-18 02:30N 07°40' W 108°59'0 0.0 -0.0 27.9
2017-Sep-18 02:00N 07°40' W 108°59'0 0.0 -0.0 27.9
2017-Sep-18 01:30N 07°40' W 108°59'1 1.2 -0.0 27.9
2017-Sep-18 01:00N 07°40' W 109°00'0 0.0 -0.0 28.0
2017-Sep-18 00:00N 07°40' W 109°00'1 1.2 -0.0 28.1
2017-Sep-17 23:30N 07°40' W 109°01'6 0.6 -0.0 28.1
2017-Sep-17 14:30N 07°37' W 109°05'1 0.8 -0.0 27.7
2017-Sep-17 13:30N 07°36' W 109°05'0 0.0 -0.0 27.7
2017-Sep-17 13:00N 07°36' W 109°05'1 0.8 -0.0 27.7
2017-Sep-17 12:00N 07°35' W 109°06'4 0.6 -0.0 27.8
2017-Sep-17 05:30N 07°32' W 109°09'1 0.6 -0.0 27.9
2017-Sep-17 04:00N 07°32' W 109°10'0 0.0 -0.0 27.9
2017-Sep-17 03:30N 07°32' W 109°10'1 1.2 -0.0 27.9
2017-Sep-17 03:00N 07°31' W 109°10'1 1.2 -0.0 27.9
2017-Sep-17 02:30N 07°31' W 109°10'0 0.0 -0.0 27.9
2017-Sep-17 02:00N 07°31' W 109°10'1 1.2 -0.0 27.9
2017-Sep-17 01:30N 07°31' W 109°11'1 1.2 -0.0 27.9
2017-Sep-17 01:00N 07°31' W 109°11'1 0.6 -0.0 28.0
2017-Sep-17 00:00N 07°31' W 109°11'1 0.6 -0.0 28.0
2017-Sep-16 23:00N 07°31' W 109°12'1 1.2 -0.0 28.1
2017-Sep-16 22:30N 07°30' W 109°12'1 0.8 -0.0 28.1
2017-Sep-16 21:00N 07°30' W 109°13'2 0.5 -0.0 28.1
2017-Sep-16 17:00N 07°29' W 109°15'1 1.2 -0.0 27.8
2017-Sep-16 16:00N 07°29' W 109°16'1 0.8 -0.0 27.8
2017-Sep-16 15:00N 07°28' W 109°17'0 0.0 -0.0 27.7
2017-Sep-16 14:30N 07°28' W 109°17'1 0.6 -0.0 27.7
2017-Sep-16 13:30N 07°28' W 109°17'1 1.2 -0.0 27.7
2017-Sep-16 13:00N 07°28' W 109°18'1 0.8 -0.0 27.7
2017-Sep-16 12:00N 07°28' W 109°19'0 0.0 -0.0 27.8
2017-Sep-16 11:30N 07°28' W 109°19'1 0.9 -0.0 27.8
2017-Sep-16 10:00N 07°27' W 109°20'0 0.0 -0.0 27.8
2017-Sep-16 09:30N 07°27' W 109°20'3 0.7 -0.0 27.8
2017-Sep-16 05:00N 07°26' W 109°23'1 1.2 -0.0 27.9
2017-Sep-16 04:30N 07°26' W 109°23'1 0.8 -0.0 27.9
2017-Sep-16 03:30N 07°25' W 109°24'1 1.2 -0.0 27.9
2017-Sep-16 02:30N 07°25' W 109°25'0 0.0 -0.0 27.9
2017-Sep-16 02:00N 07°25' W 109°25'1 1.3 -0.0 28.0
2017-Sep-16 01:00N 07°25' W 109°26'0 0.0 -0.0 28.1
2017-Sep-16 00:30N 07°25' W 109°26'1 0.9 -0.0 28.2
2017-Sep-15 23:00N 07°24' W 109°28'1 0.6 -0.0 28.3
2017-Sep-15 22:00N 07°24' W 109°28'1 1.3 -0.0 28.4
2017-Sep-15 21:00N 07°23' W 109°29'1 0.8 -0.0 28.2
2017-Sep-15 20:00N 07°23' W 109°30'2 0.7 -0.0 28.0
2017-Sep-15 17:00N 07°22' W 109°32'1 0.9 -0.0 27.7
2017-Sep-15 15:30N 07°21' W 109°33'2 0.9 -0.0 27.6
2017-Sep-15 13:00N 07°20' W 109°35'1 1.2 -0.0 27.6
2017-Sep-15 12:30N 07°20' W 109°35'1 1.2 -0.0 27.6
2017-Sep-15 12:00N 07°20' W 109°36'2 0.8 -0.0 27.6
2017-Sep-15 10:00N 07°19' W 109°37'1 1.3 -0.0 27.6
2017-Sep-15 09:00N 07°18' W 109°38'3 0.7 -0.0 27.6
2017-Sep-15 05:30N 07°16' W 109°40'2 1.1 -0.0 27.7
2017-Sep-15 04:00N 07°15' W 109°41'1 0.8 -0.0 27.7
2017-Sep-15 03:00N 07°14' W 109°42'1 1.3 -0.0 27.7
2017-Sep-15 02:00N 07°13' W 109°43'1 0.8 -0.0 27.7
2017-Sep-15 01:00N 07°13' W 109°43'1 0.8 -0.0 27.8
2017-Sep-15 00:00N 07°12' W 109°44'1 1.3 -0.0 27.8
2017-Sep-14 23:00N 07°11' W 109°45'2 0.8 -0.0 27.8
2017-Sep-14 21:00N 07°10' W 109°46'2 0.5 -0.0 27.8
2017-Sep-14 17:30N 07°09' W 109°47'1 1.2 -0.0 27.6
2017-Sep-14 17:00N 07°09' W 109°48'1 0.4 -0.0 27.6
2017-Sep-14 14:00N 07°08' W 109°49'1 1.2 -0.0 27.6
2017-Sep-14 13:30N 07°08' W 109°49'0 0.0 -0.0 27.6
2017-Sep-14 13:00N 07°08' W 109°49'   -0.0 27.6

Dump ship's entire track history